createdAt,value
2017-07-14T00:00:12.541Z,13.37
2017-07-14T00:01:12.538Z,13.4
2017-07-14T00:02:12.213Z,13.36
2017-07-14T00:03:12.181Z,13.29
2017-07-14T00:04:12.812Z,13.25
2017-07-14T00:05:12.806Z,13.29
2017-07-14T00:06:12.136Z,13.32
2017-07-14T00:07:12.771Z,13.25
2017-07-14T00:08:12.438Z,13.22
2017-07-14T00:09:12.423Z,13.22
2017-07-14T00:10:12.731Z,13.2
2017-07-14T00:11:12.071Z,13.21
2017-07-14T00:12:12.058Z,13.22
2017-07-14T00:13:12.397Z,13.22
2017-07-14T00:14:12.355Z,13.17
2017-07-14T00:15:12.021Z,13.25
2017-07-14T00:16:12.006Z,13.22
2017-07-14T00:17:12.318Z,13.18
2017-07-14T00:18:12.338Z,13.27
2017-07-14T00:19:12.291Z,13.22
2017-07-14T00:20:12.596Z,13.21
2017-07-14T00:21:11.941Z,13.25
2017-07-14T00:22:11.927Z,13.25
2017-07-14T00:23:12.569Z,13.25
2017-07-14T00:24:11.899Z,13.24
2017-07-14T00:25:11.888Z,13.24
2017-07-14T00:26:12.197Z,13.18
2017-07-14T00:27:12.182Z,13.14
2017-07-14T00:28:12.171Z,13.17
2017-07-14T00:29:12.154Z,13.2
2017-07-14T00:30:12.145Z,13.2
2017-07-14T00:31:12.490Z,13.27
2017-07-14T00:32:11.797Z,13.29
2017-07-14T00:33:12.104Z,13.27
2017-07-14T00:34:11.776Z,13.24
2017-07-14T00:35:12.075Z,13.2
2017-07-14T00:36:12.069Z,13.27
2017-07-14T00:37:11.727Z,13.24
2017-07-14T00:38:12.047Z,13.3
2017-07-14T00:39:12.351Z,13.27
2017-07-14T00:40:11.709Z,13.17
2017-07-14T00:41:11.998Z,13.2
2017-07-14T00:42:11.664Z,13.2
2017-07-14T00:43:11.971Z,13.25
2017-07-14T00:44:12.279Z,13.21
2017-07-14T00:45:12.271Z,13.25
2017-07-14T00:46:11.607Z,13.22
2017-07-14T00:47:11.918Z,13.18
2017-07-14T00:48:11.905Z,13.15
2017-07-14T00:49:11.571Z,13.15
2017-07-14T00:50:11.914Z,13.17
2017-07-14T00:51:12.186Z,13.21
2017-07-14T00:52:11.855Z,13.2
2017-07-14T00:53:11.834Z,13.2
2017-07-14T00:54:11.825Z,13.21
2017-07-14T00:55:11.810Z,13.17
2017-07-14T00:56:11.797Z,13.21
2017-07-14T00:57:11.461Z,13.21
2017-07-14T00:58:11.799Z,13.14
2017-07-14T00:59:11.761Z,13.14
2017-07-14T01:00:12.061Z,13.21
2017-07-14T01:01:11.410Z,13.07
2017-07-14T01:02:11.719Z,13.06
2017-07-14T01:03:11.710Z,13.04
2017-07-14T01:04:12.011Z,13.07
2017-07-14T01:05:12.003Z,13.09
2017-07-14T01:06:11.664Z,13.07
2017-07-14T01:07:11.653Z,13.09
2017-07-14T01:08:11.639Z,13.17
2017-07-14T01:09:11.351Z,13.06
2017-07-14T01:10:11.940Z,13.17
2017-07-14T01:11:11.276Z,13.18
2017-07-14T01:12:11.584Z,13.14
2017-07-14T01:13:11.572Z,13.09
2017-07-14T01:14:11.881Z,13.12
2017-07-14T01:15:11.219Z,13.07
2017-07-14T01:16:11.529Z,13.03
2017-07-14T01:17:11.836Z,12.96
2017-07-14T01:18:11.185Z,12.97
2017-07-14T01:19:11.497Z,12.95
2017-07-14T01:20:11.482Z,12.93
2017-07-14T01:21:11.472Z,12.85
2017-07-14T01:22:11.765Z,12.89
2017-07-14T01:23:11.433Z,12.81
2017-07-14T01:24:11.418Z,12.81
2017-07-14T01:25:11.735Z,12.78
2017-07-14T01:26:11.101Z,12.81
2017-07-14T01:27:11.379Z,12.75
2017-07-14T01:28:11.046Z,12.74
2017-07-14T01:29:11.404Z,12.74
2017-07-14T01:30:11.660Z,12.81
2017-07-14T01:31:11.003Z,12.78
2017-07-14T01:32:11.313Z,12.78
2017-07-14T01:33:10.975Z,12.85
2017-07-14T01:34:10.963Z,12.82
2017-07-14T01:35:11.273Z,12.82
2017-07-14T01:36:11.262Z,12.87
2017-07-14T01:37:11.565Z,12.84
2017-07-14T01:38:11.554Z,12.92
2017-07-14T01:39:10.896Z,12.92
2017-07-14T01:40:11.208Z,12.88
2017-07-14T01:41:11.190Z,12.85
2017-07-14T01:42:11.181Z,12.84
2017-07-14T01:43:11.164Z,12.97
2017-07-14T01:44:11.146Z,12.93
2017-07-14T01:45:11.135Z,12.92
2017-07-14T01:46:11.123Z,12.99
2017-07-14T01:47:10.786Z,12.99
2017-07-14T01:48:11.417Z,13
2017-07-14T01:49:11.087Z,13.03
2017-07-14T01:50:10.756Z,13.14
2017-07-14T01:51:11.052Z,13.09
2017-07-14T01:52:11.044Z,13.07
2017-07-14T01:53:11.354Z,13.17
2017-07-14T01:54:11.013Z,13.24
2017-07-14T01:55:10.680Z,13.18
2017-07-14T01:56:10.664Z,13.22
2017-07-14T01:57:11.296Z,13.18
2017-07-14T01:58:11.309Z,13.07
2017-07-14T01:59:10.946Z,13.12
2017-07-14T02:00:10.610Z,13.2
2017-07-14T02:01:10.920Z,13.15
2017-07-14T02:02:10.910Z,13.06
2017-07-14T02:03:10.574Z,13.2
2017-07-14T02:04:10.560Z,13.11
2017-07-14T02:08:53.117Z,12.99
2017-07-14T02:09:02.600Z,13.03
2017-07-14T02:10:02.576Z,13
2017-07-14T02:11:02.882Z,12.97
2017-07-14T02:12:02.547Z,12.99
2017-07-14T02:13:02.536Z,12.89
2017-07-14T02:14:02.842Z,12.88
2017-07-14T02:15:02.235Z,12.81
2017-07-14T02:16:02.493Z,12.89
2017-07-14T02:17:02.486Z,12.88
2017-07-14T02:18:02.142Z,12.88
2017-07-14T02:19:02.453Z,12.88
2017-07-14T02:20:02.443Z,12.77
2017-07-14T02:21:02.751Z,12.77
2017-07-14T02:22:02.771Z,12.82
2017-07-14T02:23:02.404Z,12.78
2017-07-14T02:24:02.062Z,12.74
2017-07-14T02:25:02.374Z,12.74
2017-07-14T02:26:02.386Z,12.7
2017-07-14T02:27:02.343Z,12.75
2017-07-14T02:28:02.010Z,12.81
2017-07-14T02:29:02.321Z,12.74
2017-07-14T02:30:02.673Z,12.81
2017-07-14T02:31:02.288Z,12.77
2017-07-14T02:32:02.598Z,12.81
2017-07-14T02:33:01.949Z,12.78
2017-07-14T02:34:02.574Z,12.75
2017-07-14T02:35:02.235Z,12.75
2017-07-14T02:36:02.234Z,12.71
2017-07-14T02:37:02.216Z,12.67
2017-07-14T02:38:02.196Z,12.67
2017-07-14T02:39:02.504Z,12.62
2017-07-14T02:40:02.168Z,12.66
2017-07-14T02:41:02.159Z,12.67
2017-07-14T02:42:02.471Z,12.59
2017-07-14T02:43:01.805Z,12.69
2017-07-14T02:44:02.180Z,12.63
2017-07-14T02:45:01.778Z,12.64
2017-07-14T02:46:02.406Z,12.6
2017-07-14T02:47:02.070Z,12.59
2017-07-14T02:48:02.379Z,12.62
2017-07-14T02:49:02.043Z,12.51
2017-07-14T02:50:02.354Z,12.56
2017-07-14T02:51:02.350Z,12.48
2017-07-14T02:52:02.003Z,12.45
2017-07-14T02:53:01.992Z,12.51
2017-07-14T02:54:01.652Z,12.49
2017-07-14T02:55:01.648Z,12.54
2017-07-14T02:56:02.277Z,12.49
2017-07-14T02:57:01.939Z,12.49
2017-07-14T02:58:02.246Z,12.39
2017-07-14T02:59:01.904Z,12.48
2017-07-14T03:00:02.218Z,12.37
2017-07-14T03:01:02.204Z,12.45
2017-07-14T03:02:01.542Z,12.45
2017-07-14T03:03:01.861Z,12.48
2017-07-14T03:04:02.164Z,12.51
2017-07-14T03:05:01.824Z,12.48
2017-07-14T03:06:01.490Z,12.48
2017-07-14T03:07:02.128Z,12.49
2017-07-14T03:08:02.104Z,12.54
2017-07-14T03:09:02.095Z,12.49
2017-07-14T03:10:01.753Z,12.51
2017-07-14T03:11:02.066Z,12.48
2017-07-14T03:12:02.049Z,12.48
2017-07-14T03:13:02.036Z,12.41
2017-07-14T03:14:01.375Z,12.42
2017-07-14T03:15:01.683Z,12.37
2017-07-14T03:16:01.344Z,12.41
2017-07-14T03:17:01.983Z,12.41
2017-07-14T03:18:01.641Z,12.38
2017-07-14T03:19:01.305Z,12.46
2017-07-14T03:20:01.615Z,12.38
2017-07-14T03:21:01.920Z,12.38
2017-07-14T03:22:01.906Z,12.38
2017-07-14T03:23:01.577Z,12.44
2017-07-14T03:24:01.563Z,12.38
2017-07-14T03:25:01.544Z,12.33
2017-07-14T03:26:01.845Z,12.23
2017-07-14T03:27:01.845Z,12.26
2017-07-14T03:28:01.194Z,12.29
2017-07-14T03:29:01.490Z,12.19
2017-07-14T03:30:01.844Z,12.2
2017-07-14T03:31:01.460Z,12.16
2017-07-14T03:32:01.125Z,12.2
2017-07-14T03:33:01.428Z,12.21
2017-07-14T03:34:01.095Z,12.19
2017-07-14T03:35:01.404Z,12.12
2017-07-14T03:36:01.392Z,12.08
2017-07-14T03:37:01.052Z,12.04
2017-07-14T03:38:01.682Z,12.09
2017-07-14T03:39:01.670Z,11.97
2017-07-14T03:40:01.655Z,11.96
2017-07-14T03:41:01.635Z,11.85
2017-07-14T03:42:00.980Z,11.96
2017-07-14T03:43:01.294Z,11.85
2017-07-14T03:44:01.597Z,11.9
2017-07-14T03:45:01.261Z,11.77
2017-07-14T03:46:01.290Z,11.8
2017-07-14T03:47:01.234Z,11.77
2017-07-14T03:48:01.538Z,11.67
2017-07-14T03:49:01.202Z,11.67
2017-07-14T03:50:01.186Z,11.68
2017-07-14T03:51:01.497Z,11.68
2017-07-14T03:52:01.479Z,11.72
2017-07-14T03:53:01.150Z,11.61
2017-07-14T03:54:01.455Z,11.65
2017-07-14T03:55:01.117Z,11.62
2017-07-14T03:56:01.428Z,11.64
2017-07-14T03:57:01.091Z,11.59
2017-07-14T03:58:01.078Z,11.62
2017-07-14T03:59:01.058Z,11.59
2017-07-14T04:00:00.722Z,11.67
2017-07-14T04:01:00.708Z,11.62
2017-07-14T04:02:01.023Z,11.59
2017-07-14T04:03:00.682Z,11.54
2017-07-14T04:04:01.313Z,11.57
2017-07-14T04:05:00.975Z,11.53
2017-07-14T04:06:01.300Z,11.56
2017-07-14T04:07:01.489Z,11.59
2017-07-14T04:08:01.259Z,11.62
2017-07-14T04:09:01.259Z,11.62
2017-07-14T04:10:00.584Z,11.59
2017-07-14T04:11:00.899Z,11.64
2017-07-14T04:12:00.903Z,11.61
2017-07-14T04:13:00.865Z,11.65
2017-07-14T04:14:00.844Z,11.67
2017-07-14T04:15:00.841Z,11.71
2017-07-14T04:16:00.827Z,11.68
2017-07-14T04:17:00.797Z,11.72
2017-07-14T04:18:01.145Z,11.65
2017-07-14T04:19:00.454Z,11.71
2017-07-14T04:20:01.081Z,11.72
2017-07-14T04:21:01.061Z,11.67
2017-07-14T04:22:00.404Z,11.7
2017-07-14T04:23:01.031Z,11.68
2017-07-14T04:24:00.382Z,11.71
2017-07-14T04:25:00.684Z,11.68
2017-07-14T04:26:00.351Z,11.7
2017-07-14T04:27:00.705Z,11.71
2017-07-14T04:28:00.647Z,11.74
2017-07-14T04:29:00.637Z,11.78
2017-07-14T04:30:00.615Z,11.8
2017-07-14T04:31:00.598Z,11.78
2017-07-14T04:32:00.584Z,11.77
2017-07-14T04:33:00.248Z,11.83
2017-07-14T04:34:00.556Z,11.85
2017-07-14T04:35:00.539Z,11.83
2017-07-14T04:36:00.526Z,11.77
2017-07-14T04:37:00.837Z,11.75
2017-07-14T04:38:00.822Z,11.86
2017-07-14T04:39:00.806Z,11.94
2017-07-14T04:40:00.471Z,11.86
2017-07-14T04:41:00.789Z,11.82
2017-07-14T04:42:00.121Z,11.85
2017-07-14T04:43:00.424Z,11.96
2017-07-14T04:44:00.094Z,11.89
2017-07-14T04:45:00.398Z,12.01
2017-07-14T04:46:00.383Z,11.97
2017-07-14T04:47:00.370Z,11.99
2017-07-14T04:48:00.405Z,12.06
2017-07-14T04:49:00.683Z,12.08
2017-07-14T04:50:00.332Z,12.08
2017-07-14T04:50:59.992Z,12.04
2017-07-14T04:52:00.299Z,12.06
2017-07-14T04:53:00.284Z,12.15
2017-07-14T04:54:00.602Z,12.19
2017-07-14T04:54:59.936Z,12.19
2017-07-14T04:56:00.245Z,12.23
2017-07-14T04:57:00.229Z,12.27
2017-07-14T04:57:59.892Z,12.37
2017-07-14T04:58:59.880Z,12.38
2017-07-14T05:00:00.509Z,12.44
2017-07-14T05:01:00.499Z,12.34
2017-07-14T05:02:00.158Z,12.46
2017-07-14T05:03:00.466Z,12.49
2017-07-14T05:04:00.452Z,12.48
2017-07-14T05:04:59.795Z,12.48
2017-07-14T05:06:00.102Z,12.44
2017-07-14T05:07:00.095Z,12.51
2017-07-14T05:08:00.076Z,12.49
2017-07-14T05:09:00.059Z,12.52
2017-07-14T05:10:00.051Z,12.57
2017-07-14T05:10:59.707Z,12.66
2017-07-14T05:11:59.697Z,12.67
2017-07-14T05:13:00.006Z,12.7
2017-07-14T05:13:59.991Z,12.67
2017-07-14T05:15:00.298Z,12.66
2017-07-14T05:15:59.643Z,12.78
2017-07-14T05:16:59.958Z,12.85
2017-07-14T05:17:59.939Z,12.79
2017-07-14T05:18:59.921Z,12.85
2017-07-14T05:19:59.915Z,12.85
2017-07-14T05:20:59.902Z,12.93
2017-07-14T05:21:59.883Z,12.99
2017-07-14T05:23:00.188Z,13.07
2017-07-14T05:23:59.533Z,13.07
2017-07-14T05:24:59.876Z,13.25
2017-07-14T05:25:59.832Z,13.15
2017-07-14T05:26:59.810Z,13.2
2017-07-14T05:27:59.483Z,13.25
2017-07-14T05:28:59.470Z,13.33
2017-07-14T05:29:59.785Z,13.36
2017-07-14T05:30:59.763Z,13.33
2017-07-14T05:31:59.425Z,13.46
2017-07-14T05:33:00.062Z,13.47
2017-07-14T05:33:59.399Z,13.54
2017-07-14T05:34:59.706Z,13.56
2017-07-14T05:36:00.021Z,13.61
2017-07-14T05:37:00.000Z,13.62
2017-07-14T05:37:59.346Z,13.65
2017-07-14T05:38:59.975Z,13.67
2017-07-14T05:39:59.968Z,13.71
2017-07-14T05:40:59.627Z,13.87
2017-07-14T05:41:59.620Z,13.84
2017-07-14T05:42:59.603Z,13.8
2017-07-14T05:43:59.911Z,13.87
2017-07-14T05:44:59.901Z,13.98
2017-07-14T05:45:59.566Z,13.96
2017-07-14T05:46:59.552Z,14.01
2017-07-14T05:47:59.575Z,14.06
2017-07-14T05:48:59.204Z,14.13
2017-07-14T05:49:59.191Z,14.09
2017-07-14T05:50:59.501Z,14.24
2017-07-14T05:51:59.809Z,14.31
2017-07-14T05:52:59.795Z,14.25
2017-07-14T05:53:59.460Z,14.35
2017-07-14T05:54:59.772Z,14.32
2017-07-14T05:55:59.440Z,14.32
2017-07-14T05:56:59.426Z,14.43
2017-07-14T05:57:59.410Z,14.47
2017-07-14T05:58:59.724Z,14.52
2017-07-14T05:59:59.386Z,14.53
2017-07-14T06:00:59.699Z,14.52
2017-07-14T06:01:59.047Z,14.57
2017-07-14T06:02:59.348Z,14.53
2017-07-14T06:03:59.342Z,14.5
2017-07-14T06:04:59.006Z,14.68
2017-07-14T06:05:59.312Z,14.69
2017-07-14T06:06:59.510Z,14.71
2017-07-14T06:07:59.286Z,14.74
2017-07-14T06:08:59.608Z,14.74
2017-07-14T06:09:59.261Z,14.81
2017-07-14T06:10:58.930Z,14.84
2017-07-14T06:11:59.245Z,14.88
2017-07-14T06:12:59.234Z,14.88
2017-07-14T06:13:58.891Z,14.86
2017-07-14T06:14:59.201Z,14.93
2017-07-14T06:15:59.194Z,15.01
2017-07-14T06:16:59.184Z,15.3
2017-07-14T06:17:59.507Z,15.52
2017-07-14T06:18:59.160Z,15.64
2017-07-14T06:19:58.822Z,15.67
2017-07-14T06:20:59.130Z,15.7
2017-07-14T06:21:58.799Z,15.63
2017-07-14T06:22:58.785Z,15.67
2017-07-14T06:23:59.415Z,15.72
2017-07-14T06:24:59.089Z,15.68
2017-07-14T06:25:59.082Z,15.74
2017-07-14T06:26:59.063Z,15.68
2017-07-14T06:27:59.057Z,15.74
2017-07-14T06:28:59.044Z,15.63
2017-07-14T06:29:59.354Z,15.61
2017-07-14T06:30:59.029Z,15.68
2017-07-14T06:31:59.008Z,15.72
2017-07-14T06:32:59.326Z,15.78
2017-07-14T06:33:58.990Z,15.7
2017-07-14T06:34:59.300Z,15.75
2017-07-14T06:35:58.967Z,15.75
2017-07-14T06:36:58.962Z,15.72
2017-07-14T06:37:58.627Z,15.76
2017-07-14T06:38:58.613Z,15.72
2017-07-14T06:39:58.956Z,15.81
2017-07-14T06:40:59.233Z,15.84
2017-07-14T06:41:58.901Z,15.82
2017-07-14T06:42:58.893Z,15.82
2017-07-14T06:43:58.561Z,15.86
2017-07-14T06:44:58.868Z,15.88
2017-07-14T06:45:58.538Z,15.93
2017-07-14T06:46:58.847Z,15.92
2017-07-14T06:47:58.841Z,15.94
2017-07-14T06:48:58.826Z,16.04
2017-07-14T06:49:58.819Z,16.06
2017-07-14T06:50:59.129Z,16.15
2017-07-14T06:51:58.472Z,16.18
2017-07-14T06:52:58.787Z,16.2
2017-07-14T06:53:58.773Z,16.23
2017-07-14T06:54:59.086Z,16.26
2017-07-14T06:55:58.747Z,16.27
2017-07-14T06:56:59.060Z,16.26
2017-07-14T06:57:59.047Z,16.4
2017-07-14T06:58:58.391Z,16.49
2017-07-14T06:59:58.381Z,16.53
2017-07-14T07:00:58.691Z,16.52
2017-07-14T07:01:58.361Z,16.59
2017-07-14T07:02:58.672Z,16.63
2017-07-14T07:03:58.657Z,16.68
2017-07-14T07:04:58.647Z,16.78
2017-07-14T07:05:58.635Z,16.8
2017-07-14T07:06:58.303Z,16.86
2017-07-14T07:07:58.935Z,16.95
2017-07-14T07:08:58.605Z,17.07
2017-07-14T07:09:58.590Z,17.03
2017-07-14T07:10:58.901Z,17.08
2017-07-14T07:11:58.571Z,17.17
2017-07-14T07:12:58.292Z,17.23
2017-07-14T07:13:58.551Z,17.33
2017-07-14T07:14:58.539Z,17.32
2017-07-14T07:15:58.891Z,17.47
2017-07-14T07:16:58.528Z,17.53
2017-07-14T07:17:58.508Z,17.51
2017-07-14T07:18:58.202Z,17.7
2017-07-14T07:19:58.488Z,17.67
2017-07-14T07:20:58.482Z,17.73
2017-07-14T07:21:58.469Z,17.78
2017-07-14T07:22:58.451Z,17.85
2017-07-14T07:23:58.445Z,17.92
2017-07-14T07:24:58.110Z,17.92
2017-07-14T07:25:58.428Z,17.89
2017-07-14T07:26:58.415Z,18.03
2017-07-14T07:27:58.453Z,18.06
2017-07-14T07:28:58.717Z,18.07
2017-07-14T07:29:58.411Z,18.07
2017-07-14T07:30:58.715Z,18.17
2017-07-14T07:31:58.372Z,18.18
2017-07-14T07:32:58.029Z,18.21
2017-07-14T07:33:58.341Z,18.25
2017-07-14T07:34:58.666Z,18.24
2017-07-14T07:35:58.359Z,18.57
2017-07-14T07:36:58.646Z,19.25
2017-07-14T07:37:58.624Z,19.95
2017-07-14T07:38:57.970Z,20.15
2017-07-14T07:39:57.965Z,20.84
2017-07-14T07:40:58.299Z,21.51
2017-07-14T07:41:58.275Z,22.16
2017-07-14T07:42:57.937Z,22.83
2017-07-14T07:43:58.257Z,23.27
2017-07-14T07:44:57.925Z,23.87
2017-07-14T07:45:58.242Z,24.34
2017-07-14T07:46:58.562Z,24.71
2017-07-14T07:47:58.555Z,25.07
2017-07-14T07:48:58.227Z,25.32
2017-07-14T07:49:57.896Z,25.77
2017-07-14T07:50:57.897Z,26.11
2017-07-14T07:51:58.214Z,26.42
2017-07-14T07:52:58.204Z,26.61
2017-07-14T07:53:58.218Z,27.04
2017-07-14T07:54:58.520Z,27.32
2017-07-14T07:55:58.512Z,27.59
2017-07-14T07:56:58.187Z,27.96
2017-07-14T07:57:58.184Z,28.31
2017-07-14T07:58:58.181Z,28.44
2017-07-14T07:59:58.644Z,28.4
2017-07-14T08:00:57.859Z,28.36
2017-07-14T08:01:58.496Z,28.54
2017-07-14T08:02:58.171Z,28.66
2017-07-14T08:03:58.175Z,28.77
2017-07-14T08:04:57.846Z,28.56
2017-07-14T08:05:58.163Z,28.25
2017-07-14T08:06:58.364Z,28.11
2017-07-14T08:07:58.162Z,27.95
2017-07-14T08:08:58.160Z,27.99
2017-07-14T08:09:58.159Z,28.04
2017-07-14T08:10:58.479Z,28.1
2017-07-14T08:11:58.473Z,28.28
2017-07-14T08:12:58.154Z,28.26
2017-07-14T08:13:58.155Z,28.41
2017-07-14T08:14:58.152Z,28.66
2017-07-14T08:15:58.485Z,28.81
2017-07-14T08:16:57.827Z,28.65
2017-07-14T08:17:58.150Z,28.35
2017-07-14T08:18:58.152Z,27.95
2017-07-14T08:19:58.465Z,28.09
2017-07-14T08:20:58.149Z,28.17
2017-07-14T08:21:58.469Z,28.47
2017-07-14T08:22:58.141Z,28.53
2017-07-14T08:23:58.143Z,28.56
2017-07-14T08:24:58.151Z,28.85
2017-07-14T08:25:58.143Z,29.06
2017-07-14T08:26:58.145Z,29.11
2017-07-14T08:27:58.143Z,29.2
2017-07-14T08:28:57.821Z,29.35
2017-07-14T08:29:57.820Z,29.65
2017-07-14T08:30:58.467Z,29.75
2017-07-14T08:31:57.820Z,29.56
2017-07-14T08:32:58.145Z,29.44
2017-07-14T08:33:58.140Z,29.11
2017-07-14T08:34:57.818Z,28.33
2017-07-14T08:35:57.819Z,27.79
2017-07-14T08:36:58.464Z,27.2
2017-07-14T08:37:58.463Z,26.69
2017-07-14T08:38:58.515Z,26.5
2017-07-14T08:39:58.465Z,26.35
2017-07-14T08:40:58.144Z,26.37
2017-07-14T08:41:58.143Z,26.8
2017-07-14T08:42:58.468Z,27.06
2017-07-14T08:43:58.139Z,27.31
2017-07-14T08:44:58.465Z,27.64
2017-07-14T08:45:57.821Z,27.74
2017-07-14T08:46:58.135Z,27.85
2017-07-14T08:47:58.457Z,27.66
2017-07-14T08:48:58.458Z,27.79
2017-07-14T08:49:58.457Z,27.41
2017-07-14T08:50:58.136Z,27.21
2017-07-14T08:51:58.484Z,27.16
2017-07-14T08:52:57.813Z,26.96
2017-07-14T08:53:58.458Z,26.69
2017-07-14T08:54:57.808Z,26.4
2017-07-14T08:55:58.451Z,26.15
2017-07-14T08:56:57.810Z,25.59
2017-07-14T08:57:58.127Z,25.05
2017-07-14T08:58:57.803Z,24.76
2017-07-14T08:59:57.801Z,24.57
2017-07-14T09:00:58.448Z,24.53
2017-07-14T09:01:58.442Z,24.77
2017-07-14T09:02:58.116Z,25.12
2017-07-14T09:03:58.436Z,25.07
2017-07-14T09:04:58.434Z,24.79
2017-07-14T09:05:58.111Z,24.53
2017-07-14T09:06:58.104Z,24.34
2017-07-14T09:07:58.103Z,23.92
2017-07-14T09:08:58.419Z,23.82
2017-07-14T09:09:58.094Z,23.77
2017-07-14T09:10:57.772Z,23.83
2017-07-14T09:11:57.767Z,24
2017-07-14T09:12:57.759Z,23.95
2017-07-14T09:13:57.755Z,23.77
2017-07-14T09:14:58.416Z,23.76
2017-07-14T09:15:57.752Z,23.75
2017-07-14T09:16:58.072Z,23.58
2017-07-14T09:17:58.066Z,23.61
2017-07-14T09:18:58.385Z,23.47
2017-07-14T09:19:58.380Z,23.52
2017-07-14T09:20:58.059Z,23.76
2017-07-14T09:21:58.055Z,23.89
2017-07-14T09:22:58.466Z,24.08
2017-07-14T09:23:58.048Z,24.34
2017-07-14T09:24:58.045Z,24.54
2017-07-14T09:25:57.719Z,24.61
2017-07-14T09:26:58.083Z,24.85
2017-07-14T09:27:58.044Z,25.34
2017-07-14T09:28:58.050Z,25.9
2017-07-14T09:29:57.758Z,26.18
2017-07-14T09:30:58.036Z,26.31
2017-07-14T09:31:58.060Z,26.02
2017-07-14T09:32:58.031Z,25.74
2017-07-14T09:33:58.028Z,25.67
2017-07-14T09:34:58.430Z,25.52
2017-07-14T09:35:58.363Z,25.43
2017-07-14T09:36:58.025Z,25.28
2017-07-14T09:37:58.034Z,25.25
2017-07-14T09:38:58.343Z,25.16
2017-07-14T09:39:58.350Z,25.15
2017-07-14T09:40:58.344Z,24.91
2017-07-14T09:41:58.015Z,24.82
2017-07-14T09:42:57.695Z,24.56
2017-07-14T09:43:58.016Z,24.34
2017-07-14T09:44:58.015Z,24.14
2017-07-14T09:45:58.332Z,23.92
2017-07-14T09:46:58.328Z,23.94
2017-07-14T09:47:58.332Z,23.65
2017-07-14T09:48:57.997Z,23.52
2017-07-14T09:49:57.679Z,23.62
2017-07-14T09:50:58.001Z,23.62
2017-07-14T09:51:58.312Z,23.65
2017-07-14T09:52:57.991Z,23.57
2017-07-14T09:53:58.316Z,23.53
2017-07-14T09:54:57.993Z,23.6
2017-07-14T09:55:57.984Z,23.64
2017-07-14T09:56:58.388Z,23.8
2017-07-14T09:57:58.358Z,23.82
2017-07-14T09:58:58.066Z,23.94
2017-07-14T09:59:57.974Z,23.95
2017-07-14T10:00:58.294Z,24.02
2017-07-14T10:01:58.286Z,24.17
2017-07-14T10:02:57.954Z,24.31
2017-07-14T10:03:58.278Z,24.34
2017-07-14T10:04:58.334Z,24.45
2017-07-14T10:05:57.944Z,24.42
2017-07-14T10:06:58.153Z,24.54
2017-07-14T10:07:57.995Z,24.52
2017-07-14T10:08:57.935Z,24.54
2017-07-14T10:09:57.929Z,24.42
2017-07-14T10:10:58.242Z,24.35
2017-07-14T10:11:57.601Z,24.16
2017-07-14T10:12:57.922Z,23.97
2017-07-14T10:13:57.974Z,23.77
2017-07-14T10:14:57.922Z,23.77
2017-07-14T10:15:57.916Z,23.68
2017-07-14T10:16:57.912Z,23.7
2017-07-14T10:17:58.226Z,23.6
2017-07-14T10:18:57.902Z,23.45
2017-07-14T10:19:57.907Z,23.43
2017-07-14T10:20:57.897Z,23.52
2017-07-14T10:21:57.892Z,23.39
2017-07-14T10:22:57.555Z,23.26
2017-07-14T10:23:57.876Z,23.02
2017-07-14T10:24:57.550Z,23.08
2017-07-14T10:25:57.870Z,23.08
2017-07-14T10:26:57.863Z,23.01
2017-07-14T10:27:57.535Z,22.9
2017-07-14T10:28:57.855Z,22.83
2017-07-14T10:29:57.850Z,22.89
2017-07-14T10:30:57.523Z,22.87
2017-07-14T10:31:58.175Z,22.89
2017-07-14T10:32:57.836Z,23.07
2017-07-14T10:33:57.833Z,23.08
2017-07-14T10:34:57.828Z,23.09
2017-07-14T10:35:57.501Z,23.07
2017-07-14T10:36:58.145Z,22.99
2017-07-14T10:37:58.136Z,22.94
2017-07-14T10:38:58.133Z,22.83
2017-07-14T10:39:57.486Z,22.77
2017-07-14T10:40:57.796Z,22.71
2017-07-14T10:41:57.791Z,22.71
2017-07-14T10:42:57.789Z,22.77
2017-07-14T10:43:57.465Z,22.82
2017-07-14T10:44:58.101Z,22.87
2017-07-14T10:45:57.790Z,23.08
2017-07-14T10:46:58.090Z,23.15
2017-07-14T10:47:58.088Z,23.11
2017-07-14T10:48:58.079Z,23.04
2017-07-14T10:49:58.081Z,23.17
2017-07-14T10:50:57.754Z,23.19
2017-07-14T10:51:57.751Z,23.14
2017-07-14T10:52:57.741Z,23.11
2017-07-14T10:53:57.736Z,23.22
2017-07-14T10:54:57.734Z,23.32
2017-07-14T10:55:57.402Z,23.19
2017-07-14T10:56:58.060Z,23.17
2017-07-14T10:57:57.396Z,23.12
2017-07-14T10:58:57.712Z,23.07
2017-07-14T10:59:58.033Z,23.14
2017-07-14T11:00:58.036Z,23.38
2017-07-14T11:01:57.701Z,23.42
2017-07-14T11:02:57.695Z,23.43
2017-07-14T11:03:57.690Z,23.58
2017-07-14T11:04:58.018Z,23.46
2017-07-14T11:05:57.686Z,23.49
2017-07-14T11:06:57.681Z,23.64
2017-07-14T11:07:57.999Z,23.85
2017-07-14T11:08:57.668Z,23.94
2017-07-14T11:09:57.997Z,23.89
2017-07-14T11:10:58.032Z,23.79
2017-07-14T11:11:57.655Z,23.83
2017-07-14T11:12:57.652Z,23.79
2017-07-14T11:13:57.659Z,23.67
2017-07-14T11:14:57.650Z,23.61
2017-07-14T11:15:57.320Z,23.4
2017-07-14T11:16:57.962Z,23.52
2017-07-14T11:17:57.637Z,23.31
2017-07-14T11:18:57.954Z,23.43
2017-07-14T11:19:57.948Z,23.38
2017-07-14T11:20:57.672Z,23.27
2017-07-14T11:21:57.310Z,23.29
2017-07-14T11:22:57.294Z,23.24
2017-07-14T11:23:57.288Z,23.39
2017-07-14T11:24:57.925Z,23.42
2017-07-14T11:25:57.606Z,23.45
2017-07-14T11:26:57.279Z,23.53
2017-07-14T11:27:57.268Z,23.38
2017-07-14T11:28:57.264Z,23.46
2017-07-14T11:29:57.583Z,23.24
2017-07-14T11:30:57.943Z,23.11
2017-07-14T11:31:57.897Z,22.96
2017-07-14T11:32:57.243Z,22.87
2017-07-14T11:33:57.561Z,22.89
2017-07-14T11:34:57.238Z,22.89
2017-07-14T11:35:57.557Z,22.78
2017-07-14T11:36:57.224Z,22.72
2017-07-14T11:37:57.225Z,22.59
2017-07-14T11:38:57.532Z,22.56
2017-07-14T11:39:57.211Z,22.46
2017-07-14T11:40:57.530Z,22.43
2017-07-14T11:41:57.204Z,22.32
2017-07-14T11:42:57.838Z,22.34
2017-07-14T11:43:57.509Z,22.25
2017-07-14T11:44:57.203Z,22.31
2017-07-14T11:45:57.550Z,22.28
2017-07-14T11:46:57.499Z,22.34
2017-07-14T11:47:57.813Z,22.29
2017-07-14T11:48:57.804Z,22.32
2017-07-14T11:49:57.480Z,22.31
2017-07-14T11:50:57.473Z,22.27
2017-07-14T11:51:57.799Z,22.32
2017-07-14T11:52:57.464Z,22.29
2017-07-14T11:53:57.140Z,22.34
2017-07-14T11:54:57.774Z,22.31
2017-07-14T11:55:57.486Z,22.23
2017-07-14T11:56:57.762Z,22.17
2017-07-14T11:57:57.437Z,22.22
2017-07-14T11:58:57.758Z,22.23
2017-07-14T11:59:57.104Z,22.16
2017-07-14T12:00:57.738Z,22.22
2017-07-14T12:01:57.734Z,22.27
2017-07-14T12:02:57.406Z,22.27
2017-07-14T12:03:57.401Z,22.34
2017-07-14T12:04:57.400Z,22.44
2017-07-14T12:05:57.069Z,22.44
2017-07-14T12:06:57.592Z,22.43
2017-07-14T12:07:57.375Z,22.57
2017-07-14T12:08:57.694Z,22.62
2017-07-14T12:09:57.045Z,22.68
2017-07-14T12:10:57.040Z,22.72
2017-07-14T12:11:57.355Z,22.75
2017-07-14T12:12:57.359Z,22.69
2017-07-14T12:13:57.025Z,22.78
2017-07-14T12:14:57.340Z,22.82
2017-07-14T12:15:57.335Z,22.82
2017-07-14T12:16:57.330Z,22.75
2017-07-14T12:17:57.331Z,22.72
2017-07-14T12:18:57.350Z,22.8
2017-07-14T12:19:57.638Z,22.82
2017-07-14T12:20:57.627Z,22.84
2017-07-14T12:21:57.303Z,22.64
2017-07-14T12:22:56.972Z,22.64
2017-07-14T12:23:56.970Z,22.43
2017-07-14T12:24:57.612Z,22.5
2017-07-14T12:25:57.279Z,22.43
2017-07-14T12:26:56.953Z,22.44
2017-07-14T12:27:56.947Z,22.32
2017-07-14T12:28:57.267Z,22.34
2017-07-14T12:29:57.584Z,22.28
2017-07-14T12:30:56.930Z,22.23
2017-07-14T12:31:56.964Z,22.16
2017-07-14T12:32:57.567Z,22.14
2017-07-14T12:33:57.235Z,22.1
2017-07-14T12:34:57.561Z,22.07
2017-07-14T12:35:57.226Z,22.06
2017-07-14T12:36:57.224Z,21.97
2017-07-14T12:37:57.561Z,21.95
2017-07-14T12:38:57.213Z,22.04
2017-07-14T12:39:57.529Z,21.94
2017-07-14T12:40:57.197Z,21.79
2017-07-14T12:41:57.563Z,21.76
2017-07-14T12:42:56.866Z,21.74
2017-07-14T12:43:56.861Z,21.63
2017-07-14T12:44:57.497Z,21.67
2017-07-14T12:45:57.168Z,21.61
2017-07-14T12:46:57.160Z,21.64
2017-07-14T12:47:57.153Z,21.63
2017-07-14T12:48:56.823Z,21.63
2017-07-14T12:49:57.152Z,21.69
2017-07-14T12:50:57.452Z,21.69
2017-07-14T12:51:57.129Z,21.74
2017-07-14T12:52:56.800Z,21.76
2017-07-14T12:53:56.793Z,21.74
2017-07-14T12:54:57.108Z,21.78
2017-07-14T12:55:56.783Z,21.85
2017-07-14T12:56:57.424Z,21.82